Terminal Aerodrome Forecast
Issued by NWS

Home | Current Version | Previous Version | Text Only | Print | Product List | Glossary On
Versions: 1 2 3 4 5 6 7 8 9 10 11 12 13 14 15 16 17 18
000
FTUS43 KIND 291720
TAFLAF
TAF
KLAF 291720Z 2918/3018 06011KT 3SM SHRA VCSH SCT008 OVC060
     FM292000 06013G21KT 3SM SHRA VCTS OVC008CB
     FM292100 08014G23KT 3SM SHRA VCTS OVC010CB
     FM300700 08009KT 3SM SHRA VCTS OVC010CB
     FM300900 13007KT 4SM SHRA VCTS OVC025CB
     FM301300 16010KT 5SM -SHRA OVC030=

USA.gov is the U.S. government's official web portal to all federal, state and local government web resources and services.